createdAt,value
2016-06-26T00:02:05.642Z,15.8
2016-06-26T00:07:04.689Z,15.6
2016-06-26T00:12:04.972Z,15.6
2016-06-26T00:17:07.301Z,15.5
2016-06-26T00:27:06.921Z,15.1
2016-06-26T00:32:05.119Z,15.0
2016-06-26T00:37:05.129Z,15.0
2016-06-26T00:42:04.145Z,14.8
2016-06-26T00:47:04.873Z,14.8
2016-06-26T00:52:03.895Z,14.7
2016-06-26T00:57:05.539Z,14.7
2016-06-26T01:02:05.026Z,14.7
2016-06-26T01:07:05.197Z,14.6
2016-06-26T01:12:05.227Z,14.5
2016-06-26T01:17:07.288Z,14.5
2016-06-26T01:22:04.278Z,14.4
2016-06-26T01:27:04.825Z,14.3
2016-06-26T01:32:05.378Z,14.2
2016-06-26T01:37:04.973Z,14.2
2016-06-26T01:42:04.346Z,14.0
2016-06-26T01:47:05.014Z,14.0
2016-06-26T01:52:04.879Z,13.9
2016-06-26T01:57:04.494Z,13.9
2016-06-26T02:02:05.362Z,13.7
2016-06-26T02:07:05.582Z,13.6
2016-06-26T02:12:04.892Z,13.7
2016-06-26T02:17:07.004Z,13.5
2016-06-26T02:22:04.642Z,13.4
2016-06-26T02:27:04.192Z,13.2
2016-06-26T02:32:05.476Z,13.2
2016-06-26T02:37:05.163Z,13.1
2016-06-26T02:42:04.569Z,13.0
2016-06-26T02:47:18.212Z,13.0
2016-06-26T02:52:04.365Z,13.0
2016-06-26T02:57:04.946Z,13.0
2016-06-26T03:02:19.094Z,12.9
2016-06-26T03:07:04.569Z,12.8
2016-06-26T03:12:06.905Z,12.7
2016-06-26T03:17:25.757Z,12.7
2016-06-26T03:22:05.552Z,12.7
2016-06-26T03:27:05.718Z,12.7
2016-06-26T03:32:13.943Z,12.7
2016-06-26T03:37:06.431Z,12.7
2016-06-26T03:42:05.703Z,12.8
2016-06-26T03:47:18.849Z,12.8
2016-06-26T03:52:04.231Z,13.0
2016-06-26T03:57:05.512Z,13.0
2016-06-26T04:02:18.489Z,13.2
2016-06-26T04:07:05.317Z,13.3
2016-06-26T04:12:05.516Z,13.3
2016-06-26T04:17:17.350Z,13.4
2016-06-26T04:22:06.074Z,13.6
2016-06-26T04:27:05.624Z,14.0
2016-06-26T04:32:17.384Z,14.3
2016-06-26T04:37:05.801Z,14.5
2016-06-26T04:42:04.263Z,14.5
2016-06-26T04:47:21.322Z,14.7
2016-06-26T04:52:04.496Z,15.1
2016-06-26T04:57:04.336Z,15.1
2016-06-26T05:02:17.858Z,15.4
2016-06-26T05:07:04.525Z,15.6
2016-06-26T05:12:04.660Z,16.1
2016-06-26T05:17:18.295Z,16.3
2016-06-26T05:22:05.293Z,16.5
2016-06-26T05:27:04.702Z,16.5
2016-06-26T05:32:17.679Z,16.7
2016-06-26T05:37:04.867Z,17.0
2016-06-26T05:42:04.557Z,17.3
2016-06-26T05:47:23.412Z,17.6
2016-06-26T05:52:05.285Z,17.6
2016-06-26T05:57:04.870Z,18.1
2016-06-26T06:02:33.542Z,18.1
2016-06-26T06:07:04.242Z,18.4
2016-06-26T06:12:04.297Z,18.4
2016-06-26T06:17:26.264Z,18.6
2016-06-26T06:22:05.388Z,18.9
2016-06-26T06:27:05.416Z,19.1
2016-06-26T06:32:19.070Z,19.1
2016-06-26T06:37:04.937Z,19.3
2016-06-26T06:42:04.475Z,19.6
2016-06-26T06:47:18.272Z,19.5
2016-06-26T06:52:03.653Z,20.3
2016-06-26T06:57:03.761Z,20.5
2016-06-26T07:02:18.095Z,20.6
2016-06-26T07:07:04.149Z,21.1
2016-06-26T07:12:04.975Z,21.5
2016-06-26T07:17:26.002Z,21.4
2016-06-26T07:22:04.275Z,21.8
2016-06-26T07:27:04.759Z,22.0
2016-06-26T07:32:17.762Z,22.3
2016-06-26T07:37:07.617Z,22.7
2016-06-26T07:42:04.643Z,23.0
2016-06-26T07:47:18.367Z,23.2
2016-06-26T07:57:09.307Z,23.7
2016-06-26T08:02:19.247Z,24.0
2016-06-26T08:07:07.523Z,24.4
2016-06-26T08:12:04.875Z,24.7
2016-06-26T08:17:23.731Z,24.7
2016-06-26T08:22:05.063Z,25.8
2016-06-26T08:27:04.459Z,26.1
2016-06-26T08:32:33.823Z,26.5
2016-06-26T08:37:06.603Z,26.9
2016-06-26T08:42:05.435Z,27.2
2016-06-26T08:47:17.954Z,27.2
2016-06-26T08:52:04.695Z,27.2
2016-06-26T08:57:05.917Z,26.5
2016-06-26T09:02:37.493Z,25.6
2016-06-26T09:07:07.494Z,25.4
2016-06-26T09:12:10.367Z,25.4
2016-06-26T09:17:25.411Z,25.7
2016-06-26T09:22:06.791Z,25.5
2016-06-26T09:27:07.477Z,25.2
2016-06-26T09:32:18.557Z,25.2
2016-06-26T09:37:08.885Z,25.1
2016-06-26T09:42:08.342Z,25.4
2016-06-26T09:47:24.260Z,50.9
2016-06-26T09:52:07.700Z,25.6
2016-06-26T09:57:08.748Z,26.6
2016-06-26T10:02:15.063Z,26.5
2016-06-26T10:07:07.979Z,26.8
2016-06-26T10:12:08.060Z,26.7
2016-06-26T10:17:21.533Z,27.3
2016-06-26T10:22:07.927Z,27.5
2016-06-26T10:27:09.315Z,27.5
2016-06-26T10:32:23.210Z,27.8
2016-06-26T10:37:10.003Z,28.5
2016-06-26T10:42:09.411Z,29.4
2016-06-26T10:47:18.359Z,29.4
2016-06-26T10:52:06.730Z,29.6
2016-06-26T10:57:08.292Z,28.1
2016-06-26T11:02:23.574Z,28.0
2016-06-26T11:07:08.674Z,27.6
2016-06-26T11:12:06.809Z,27.1
2016-06-26T11:17:25.108Z,26.6
2016-06-26T11:22:06.995Z,26.6
2016-06-26T11:27:07.690Z,25.6
2016-06-26T11:32:23.328Z,25.5
2016-06-26T11:37:08.887Z,25.7
2016-06-26T11:42:09.149Z,26.3
2016-06-26T11:47:23.073Z,27.6
2016-06-26T11:52:09.363Z,28.8
2016-06-26T11:57:09.124Z,28.9
2016-06-26T12:02:22.988Z,31.0
2016-06-26T12:07:10.495Z,31.6
2016-06-26T12:12:09.340Z,31.6
2016-06-26T12:17:19.614Z,29.3
2016-06-26T12:22:09.597Z,29.3
2016-06-26T12:27:09.299Z,28.2
2016-06-26T12:32:17.690Z,28.0
2016-06-26T12:37:09.460Z,27.6
2016-06-26T12:42:06.309Z,26.8
2016-06-26T12:47:16.128Z,26.6
2016-06-26T12:52:06.625Z,26.4
2016-06-26T12:57:06.631Z,26.4
2016-06-26T13:02:18.645Z,26.9
2016-06-26T13:07:08.378Z,27.4
2016-06-26T13:12:06.839Z,28.1
2016-06-26T13:17:21.119Z,28.5
2016-06-26T13:22:07.835Z,28.9
2016-06-26T13:27:05.497Z,29.3
2016-06-26T13:32:17.600Z,29.7
2016-06-26T13:37:10.424Z,29.7
2016-06-26T13:42:07.028Z,29.3
2016-06-26T13:47:23.587Z,29.4
2016-06-26T13:52:10.954Z,29.2
2016-06-26T13:57:06.051Z,28.8
2016-06-26T20:02:10.421Z,19.7
2016-06-26T20:07:04.739Z,19.7
2016-06-26T20:12:04.618Z,19.7
2016-06-26T20:17:07.325Z,19.7
2016-06-26T20:22:03.759Z,19.7
2016-06-26T20:27:05.714Z,19.6
2016-06-26T20:32:05.375Z,19.5
2016-06-26T20:37:05.554Z,19.4
2016-06-26T20:42:05.301Z,19.3
2016-06-26T20:47:05.726Z,19.1
2016-06-26T20:52:05.289Z,19.1
2016-06-26T20:57:04.556Z,19.0
2016-06-26T21:02:05.503Z,18.6
2016-06-26T21:07:05.069Z,18.6
2016-06-26T21:12:03.771Z,18.6
2016-06-26T21:17:07.413Z,18.6
2016-06-26T21:22:04.781Z,18.6
2016-06-26T21:27:04.899Z,18.6
2016-06-26T21:32:05.393Z,18.6
2016-06-26T21:37:05.054Z,18.6
2016-06-26T21:42:04.384Z,18.4
2016-06-26T21:47:04.633Z,18.1
2016-06-26T21:52:04.272Z,17.9
2016-06-26T21:57:04.494Z,17.8
2016-06-26T22:02:05.420Z,17.7
2016-06-26T22:07:05.933Z,17.5
2016-06-26T22:12:04.960Z,17.4
2016-06-26T22:17:06.043Z,17.3
2016-06-26T22:22:05.408Z,17.3
2016-06-26T22:27:05.200Z,17.3
2016-06-26T22:32:05.203Z,17.3
2016-06-26T22:37:04.893Z,17.2
2016-06-26T22:42:05.166Z,17.1
2016-06-26T22:47:04.783Z,17.0
2016-06-26T22:52:04.054Z,16.7
2016-06-26T22:57:05.094Z,16.6
2016-06-26T23:02:05.151Z,16.5
2016-06-26T23:07:05.089Z,16.0
2016-06-26T23:12:05.625Z,15.9
2016-06-26T23:17:06.445Z,15.8
2016-06-26T23:22:04.860Z,15.7
2016-06-26T23:27:04.843Z,15.6
2016-06-26T23:32:05.693Z,15.6
2016-06-26T23:37:04.762Z,15.4
2016-06-26T23:42:04.591Z,15.4
2016-06-26T23:47:05.252Z,15.3
2016-06-26T23:52:05.614Z,15.4
2016-06-26T23:57:05.543Z,15.3
